Time;durP1;ratioP1;P1;durP2;ratioP2;P2;SDS_P1;SDS_P2;PMS_P1;PMS_P2;Temp;Humidity;BMP_temperature;BMP_pressure;BME280_temperature;BME280_humidity;BME280_pressure;Samples;Min_cycle;Max_cycle;Signal;HPM_P1;HPM_P2
2024/05/08 00:00:03;;;;;;;20.80;15.82;;;13.00;99.90;;;;;;5386137;26;20414;-78
2024/05/08 00:02:48;;;;;;;;;;;13.10;99.90;;;;;;5377990;26;20110;-77
2024/05/08 00:05:32;;;;;;;20.38;16.05;;;13.00;99.90;;;;;;5377707;26;20003;-77
2024/05/08 00:08:20;;;;;;;23.88;16.63;;;13.00;99.90;;;;;;5383712;26;20020;-77
2024/05/08 00:11:05;;;;;;;21.08;15.50;;;13.00;99.90;;;;;;5370338;26;20460;-77
2024/05/08 00:13:50;;;;;;;22.02;16.92;;;13.00;99.90;;;;;;5379454;26;20048;-78
2024/05/08 00:16:36;;;;;;;21.48;16.38;;;13.00;99.90;;;;;;5381808;26;20044;-76
2024/05/08 00:19:20;;;;;;;22.80;17.20;;;13.00;99.90;;;;;;5385083;26;20145;-76
2024/05/08 00:22:05;;;;;;;20.95;15.85;;;12.90;99.90;;;;;;5374797;26;20020;-76
2024/05/08 00:24:54;;;;;;;21.23;16.92;;;13.00;99.90;;;;;;5379412;26;20011;-76
2024/05/08 00:27:39;;;;;;;24.85;16.92;;;13.00;99.90;;;;;;5381020;26;20030;-77
2024/05/08 00:30:24;;;;;;;21.33;16.35;;;12.80;99.90;;;;;;5377485;26;20360;-76
2024/05/08 00:33:14;;;;;;;22.17;16.67;;;12.90;99.90;;;;;;5380290;26;20367;-78
2024/05/08 00:35:59;;;;;;;20.58;16.08;;;12.90;99.90;;;;;;5376334;26;20024;-76
2024/05/08 00:38:44;;;;;;;19.92;15.30;;;12.90;99.90;;;;;;5376035;26;20044;-77
2024/05/08 00:41:35;;;;;;;19.98;15.43;;;12.90;99.90;;;;;;5385219;26;20423;-77
2024/05/08 00:44:20;;;;;;;23.92;16.85;;;12.90;99.90;;;;;;5372502;26;20025;-76
2024/05/08 00:47:05;;;;;;;21.33;16.08;;;13.00;99.90;;;;;;5377853;26;20018;-78
2024/05/08 00:49:51;;;;;;;21.35;16.58;;;13.00;99.90;;;;;;5383628;26;20431;-77
2024/05/08 00:52:36;;;;;;;23.92;16.40;;;13.00;99.90;;;;;;5373767;26;20019;-77
2024/05/08 00:55:21;;;;;;;21.17;16.55;;;12.90;99.90;;;;;;5378870;26;20563;-77
2024/05/08 00:58:10;;;;;;;21.08;16.77;;;13.00;99.90;;;;;;5387730;26;20041;-77
2024/05/08 01:00:55;;;;;;;20.95;16.35;;;12.90;99.90;;;;;;5375320;26;20007;-78
2024/05/08 01:03:41;;;;;;;20.35;15.13;;;12.90;99.90;;;;;;5375233;26;20679;-78
2024/05/08 01:06:28;;;;;;;22.35;16.42;;;12.90;99.90;;;;;;5384178;26;20022;-77
2024/05/08 01:09:14;;;;;;;19.02;15.45;;;12.90;99.90;;;;;;5387738;26;20019;-77
2024/05/08 01:11:58;;;;;;;20.83;15.75;;;12.90;99.90;;;;;;5375372;26;20732;-78
2024/05/08 01:14:46;;;;;;;19.67;15.90;;;12.90;99.90;;;;;;5385263;26;20508;-77
2024/05/08 01:17:31;;;;;;;20.30;15.68;;;12.90;99.90;;;;;;5376976;26;20078;-77
2024/05/08 01:20:17;;;;;;;21.38;15.25;;;12.90;99.90;;;;;;5372770;26;20036;-77
2024/05/08 01:23:07;;;;;;;18.90;14.93;;;12.90;99.90;;;;;;5385837;26;20093;-77
2024/05/08 01:25:52;;;;;;;22.02;16.10;;;12.90;99.90;;;;;;5384264;26;20090;-77
2024/05/08 01:28:37;;;;;;;19.42;14.82;;;12.90;99.90;;;;;;5379039;26;20363;-77
2024/05/08 01:31:23;;;;;;;20.20;15.52;;;12.80;99.90;;;;;;5386748;26;20092;-77
2024/05/08 01:34:08;;;;;;;21.63;15.77;;;12.80;99.90;;;;;;5382103;26;20039;-77
2024/05/08 01:36:52;;;;;;;19.13;14.60;;;12.80;99.90;;;;;;5383373;26;20086;-76
2024/05/08 01:39:40;;;;;;;19.08;14.93;;;12.80;99.90;;;;;;5382725;26;20018;-76
2024/05/08 01:42:25;;;;;;;19.88;15.23;;;12.90;99.90;;;;;;5378675;26;20023;-77
2024/05/08 01:45:10;;;;;;;20.98;15.75;;;12.90;99.90;;;;;;5379882;26;20044;-77
2024/05/08 01:47:55;;;;;;;19.95;15.90;;;12.90;99.90;;;;;;5381673;26;20401;-76
2024/05/08 01:50:40;;;;;;;20.05;15.32;;;12.90;99.90;;;;;;5377307;26;20512;-77
2024/05/08 01:53:25;;;;;;;20.75;14.90;;;12.90;99.90;;;;;;5382376;26;20028;-77
2024/05/08 01:56:15;;;;;;;20.20;15.85;;;12.90;99.90;;;;;;5378655;26;20120;-77
2024/05/08 01:59:00;;;;;;;18.92;15.63;;;12.90;99.90;;;;;;5380013;26;20105;-76
2024/05/08 02:01:45;;;;;;;20.40;16.67;;;12.90;99.90;;;;;;5394861;26;20026;-76
2024/05/08 02:04:30;;;;;;;21.75;16.25;;;12.90;99.90;;;;;;5382301;26;20015;-78
2024/05/08 02:07:15;;;;;;;20.08;15.30;;;12.90;99.90;;;;;;5376082;26;20044;-78
2024/05/08 02:10:00;;;;;;;21.42;15.80;;;12.90;99.90;;;;;;5384920;26;20431;-77
2024/05/08 02:12:48;;;;;;;22.55;15.90;;;13.00;99.90;;;;;;5386749;26;20011;-77
2024/05/08 02:15:33;;;;;;;20.75;15.93;;;12.90;99.90;;;;;;5375799;26;20041;-76
2024/05/08 02:18:18;;;;;;;20.90;15.73;;;12.90;99.90;;;;;;5365893;26;20020;-76
2024/05/08 02:21:03;;;;;;;20.73;15.68;;;12.90;99.90;;;;;;5369862;26;20059;-77
2024/05/08 02:23:48;;;;;;;19.60;14.77;;;12.90;99.90;;;;;;5373732;26;20024;-76
2024/05/08 02:26:33;;;;;;;18.33;14.95;;;12.90;99.90;;;;;;5366648;26;20384;-76
2024/05/08 02:29:22;;;;;;;21.95;16.63;;;12.80;99.90;;;;;;5366108;26;20027;-76
2024/05/08 02:32:07;;;;;;;21.13;16.08;;;12.80;99.90;;;;;;5365406;26;20023;-77
2024/05/08 02:34:52;;;;;;;22.15;15.32;;;12.80;99.90;;;;;;5365695;26;20034;-77
2024/05/08 02:37:37;;;;;;;19.30;15.20;;;12.90;99.90;;;;;;5368417;26;20015;-77
2024/05/08 02:40:22;;;;;;;18.27;14.73;;;12.90;99.90;;;;;;5373613;26;20022;-77
2024/05/08 02:43:08;;;;;;;19.77;15.23;;;12.80;99.90;;;;;;5384286;26;20129;-77
2024/05/08 02:45:55;;;;;;;19.08;14.27;;;12.80;99.90;;;;;;5365275;26;20075;-76
2024/05/08 02:48:40;;;;;;;19.90;15.15;;;12.80;99.90;;;;;;5355656;26;20374;-76
2024/05/08 02:51:26;;;;;;;19.17;14.43;;;12.80;99.90;;;;;;5369125;26;20019;-76
2024/05/08 02:54:11;;;;;;;19.85;15.23;;;12.70;99.90;;;;;;5374238;26;20345;-77
2024/05/08 02:56:56;;;;;;;18.05;15.07;;;12.80;99.90;;;;;;5372747;26;20060;-77
2024/05/08 02:59:41;;;;;;;18.42;14.52;;;12.70;99.90;;;;;;5375917;26;20526;-77
2024/05/08 03:02:28;;;;;;;18.52;14.70;;;12.70;99.90;;;;;;5378122;26;20023;-76
2024/05/08 03:05:14;;;;;;;17.52;14.13;;;12.70;99.90;;;;;;5371040;26;20012;-76
2024/05/08 03:07:59;;;;;;;17.65;13.20;;;12.70;99.90;;;;;;5372756;26;20048;-76
2024/05/08 03:10:44;;;;;;;17.08;14.02;;;12.70;99.90;;;;;;5369375;26;20081;-76
2024/05/08 03:13:29;;;;;;;17.15;13.57;;;12.70;99.90;;;;;;5368783;26;20094;-76
2024/05/08 03:16:19;;;;;;;19.83;13.65;;;12.70;99.90;;;;;;5369227;26;20070;-76
2024/05/08 03:19:07;;;;;;;16.83;13.15;;;12.70;99.90;;;;;;5367109;26;20084;-76
2024/05/08 03:21:51;;;;;;;19.05;13.77;;;12.70;99.90;;;;;;5373007;26;20034;-77
2024/05/08 03:24:37;;;;;;;16.38;13.35;;;12.70;99.90;;;;;;5368007;26;20023;-76
2024/05/08 03:27:23;;;;;;;18.33;13.95;;;12.70;99.90;;;;;;5367557;26;20054;-75
2024/05/08 03:30:09;;;;;;;17.02;12.52;;;12.70;99.90;;;;;;5372995;26;20022;-76
2024/05/08 03:32:53;;;;;;;;;;;12.70;99.90;;;;;;5377358;26;20008;-76
2024/05/08 03:35:41;;;;;;;15.95;12.52;;;12.70;99.90;;;;;;5364184;26;20082;-78
2024/05/08 03:38:26;;;;;;;16.25;13.27;;;12.70;99.90;;;;;;5365607;26;20531;-77
2024/05/08 03:41:14;;;;;;;16.63;12.90;;;12.70;99.90;;;;;;5373499;26;20761;-77
2024/05/08 03:43:59;;;;;;;17.23;13.35;;;12.70;99.90;;;;;;5365589;26;20012;-77
2024/05/08 03:46:44;;;;;;;17.17;12.57;;;12.70;99.90;;;;;;5369744;26;20019;-77
2024/05/08 03:49:29;;;;;;;15.38;12.65;;;12.70;99.90;;;;;;5376172;26;20011;-77
2024/05/08 03:52:16;;;;;;;18.45;13.07;;;12.70;99.90;;;;;;5378854;26;20423;-76
2024/05/08 03:55:01;;;;;;;17.92;13.27;;;12.60;99.90;;;;;;5366216;26;20080;-76
2024/05/08 03:57:46;;;;;;;15.95;12.55;;;12.70;99.90;;;;;;5366300;26;20048;-76
2024/05/08 04:00:31;;;;;;;15.00;12.80;;;12.60;99.90;;;;;;5366303;26;20015;-76
2024/05/08 04:03:16;;;;;;;15.90;12.80;;;12.60;99.90;;;;;;5374220;26;20513;-76
2024/05/08 04:06:02;;;;;;;16.85;13.00;;;12.60;99.90;;;;;;5374195;26;20088;-75
2024/05/08 04:08:49;;;;;;;15.75;12.50;;;12.60;99.90;;;;;;5360740;26;20045;-76
2024/05/08 04:11:34;;;;;;;17.55;12.90;;;12.60;99.90;;;;;;5377471;26;20023;-76
2024/05/08 04:14:19;;;;;;;17.67;12.48;;;12.60;99.90;;;;;;5369607;26;20344;-76
2024/05/08 04:17:04;;;;;;;16.98;12.38;;;12.70;99.90;;;;;;5370603;26;20044;-76
2024/05/08 04:19:49;;;;;;;17.95;13.73;;;12.60;99.90;;;;;;5367820;26;20038;-75
2024/05/08 04:22:35;;;;;;;14.52;12.48;;;12.60;99.90;;;;;;5372545;26;20019;-75
2024/05/08 04:25:22;;;;;;;15.05;12.25;;;12.70;99.90;;;;;;5362290;26;20053;-76
2024/05/08 04:28:08;;;;;;;14.82;12.60;;;12.60;99.90;;;;;;5368016;26;20467;-76
2024/05/08 04:30:53;;;;;;;;;;;12.70;99.90;;;;;;5371374;26;20425;-76
2024/05/08 04:33:37;;;;;;;17.75;12.98;;;12.70;99.90;;;;;;5371228;26;19940;-78
2024/05/08 04:36:23;;;;;;;15.30;12.13;;;12.70;99.90;;;;;;5373389;26;20090;-77
2024/05/08 04:39:07;;;;;;;16.30;12.60;;;12.60;99.90;;;;;;5378955;26;20923;-77
2024/05/08 04:41:55;;;;;;;15.73;12.98;;;12.60;99.90;;;;;;5372487;26;20048;-76
2024/05/08 04:44:40;;;;;;;16.45;12.75;;;12.60;99.90;;;;;;5370553;26;20044;-76
2024/05/08 04:47:25;;;;;;;17.63;13.43;;;12.60;99.90;;;;;;5370451;26;20023;-77
2024/05/08 04:50:10;;;;;;;18.30;13.32;;;12.60;99.90;;;;;;5377977;26;20743;-77
2024/05/08 04:52:55;;;;;;;18.67;13.55;;;12.60;99.90;;;;;;5380349;26;20377;-77
2024/05/08 04:55:40;;;;;;;15.40;12.07;;;12.60;99.90;;;;;;5371921;26;20517;-77
2024/05/08 04:58:28;;;;;;;15.98;12.50;;;12.60;99.90;;;;;;5378643;26;20019;-77
2024/05/08 05:01:13;;;;;;;15.27;12.98;;;12.70;99.90;;;;;;5372074;26;20085;-77
2024/05/08 05:03:58;;;;;;;18.17;13.30;;;12.70;99.90;;;;;;5369055;26;20516;-76
2024/05/08 05:06:43;;;;;;;17.02;13.57;;;12.80;99.90;;;;;;5371583;26;20460;-76
2024/05/08 05:09:28;;;;;;;18.88;13.95;;;12.80;99.90;;;;;;5370970;26;20090;-78
2024/05/08 05:12:13;;;;;;;17.27;13.68;;;12.80;99.90;;;;;;5376971;26;20078;-77
2024/05/08 05:15:01;;;;;;;19.27;14.45;;;12.90;99.90;;;;;;5368142;26;20020;-78
2024/05/08 05:17:46;;;;;;;18.65;13.40;;;12.90;99.90;;;;;;5377573;26;20051;-77
2024/05/08 05:20:31;;;;;;;19.17;13.90;;;12.90;99.90;;;;;;5372989;26;20459;-78
2024/05/08 05:23:17;;;;;;;18.88;14.68;;;13.00;99.90;;;;;;5379438;26;20027;-76
2024/05/08 05:26:02;;;;;;;19.60;14.15;;;13.00;99.90;;;;;;5371188;26;20060;-78
2024/05/08 05:28:47;;;;;;;19.25;14.70;;;13.00;99.90;;;;;;5371896;26;20563;-75
2024/05/08 05:35:01;;;;;;;20.10;15.20;;;13.00;99.90;;;;;;5235033;27;20019;-78
2024/05/08 05:37:48;;;;;;;21.42;15.55;;;13.00;99.90;;;;;;5244239;27;20030;-78
2024/05/08 05:40:33;;;;;;;19.40;14.70;;;13.10;99.90;;;;;;5338217;26;20518;-75
2024/05/08 05:46:22;;;;;;;20.45;15.40;;;13.10;99.90;;;;;;5383240;26;20014;-78
2024/05/08 05:49:11;;;;;;;22.33;15.48;;;13.00;99.90;;;;;;5373012;26;20018;-77
2024/05/08 05:51:59;;;;;;;22.00;15.90;;;13.10;99.90;;;;;;5372557;26;20052;-77
2024/05/08 05:54:49;;;;;;;20.15;15.55;;;13.10;99.90;;;;;;5372507;26;20090;-77
2024/05/08 05:57:34;;;;;;;22.27;15.63;;;13.10;99.90;;;;;;5377383;26;20085;-76
2024/05/08 06:00:28;;;;;;;19.75;15.25;;;13.10;99.90;;;;;;5364797;26;20027;-76
2024/05/08 06:03:15;;;;;;;19.35;14.75;;;13.00;99.90;;;;;;5376496;26;20524;-78
2024/05/08 06:06:21;;;;;;;19.95;14.98;;;13.10;99.90;;;;;;5376259;26;20080;-78
2024/05/08 06:09:06;;;;;;;19.58;14.63;;;13.10;99.90;;;;;;5359319;26;20085;-78
2024/05/08 06:11:51;;;;;;;17.73;13.52;;;13.10;99.90;;;;;;5366036;26;20352;-76
2024/05/08 06:14:36;;;;;;;18.50;15.00;;;13.20;99.90;;;;;;5370013;26;20074;-76
2024/05/08 06:17:22;;;;;;;20.08;15.00;;;13.30;99.90;;;;;;5362545;26;20054;-76
2024/05/08 06:20:07;;;;;;;;;;;13.20;99.90;;;;;;5368159;26;20496;-77
2024/05/08 06:22:55;;;;;;;17.40;13.95;;;13.20;99.90;;;;;;5367330;26;19936;-77
2024/05/08 06:25:41;;;;;;;23.33;14.73;;;13.30;99.90;;;;;;5374463;26;20434;-78
2024/05/08 06:28:26;;;;;;;;;;;13.30;99.90;;;;;;5374892;26;20424;-76
2024/05/08 06:31:11;;;;;;;16.45;13.32;;;13.20;99.90;;;;;;5369891;26;20082;-77
2024/05/08 06:34:00;;;;;;;18.88;14.98;;;13.40;99.90;;;;;;5374281;26;20018;-76
2024/05/08 06:36:45;;;;;;;19.27;14.95;;;13.60;99.90;;;;;;5381917;26;20023;-76
2024/05/08 06:39:32;;;;;;;18.23;13.73;;;13.70;99.90;;;;;;5374262;26;20101;-76
2024/05/08 06:42:17;;;;;;;17.33;14.40;;;13.90;99.90;;;;;;5364800;26;20031;-77
2024/05/08 06:45:03;;;;;;;21.25;14.50;;;14.00;99.90;;;;;;5368079;26;20019;-77
2024/05/08 06:47:47;;;;;;;;;;;14.10;99.90;;;;;;5381035;26;20017;-75
2024/05/08 06:50:32;;;;;;;18.95;14.70;;;14.20;99.90;;;;;;5384811;26;19935;-76
2024/05/08 06:53:18;;;;;;;18.95;15.07;;;14.20;99.90;;;;;;5372299;26;20369;-76
2024/05/08 06:56:07;;;;;;;18.92;14.88;;;14.30;99.90;;;;;;5378541;26;20045;-78
2024/05/08 06:58:52;;;;;;;17.98;14.05;;;14.30;99.90;;;;;;5376686;26;20026;-77
2024/05/08 07:01:37;;;;;;;19.73;16.33;;;14.20;99.90;;;;;;5389572;26;20029;-77
2024/05/08 07:04:22;;;;;;;18.30;15.30;;;14.20;99.90;;;;;;5374756;26;20049;-77
2024/05/08 07:07:07;;;;;;;22.38;15.40;;;14.20;99.90;;;;;;5383001;26;20081;-77
2024/05/08 07:09:52;;;;;;;22.17;16.67;;;14.20;99.90;;;;;;5384383;26;20022;-77
2024/05/08 07:12:39;;;;;;;20.38;15.98;;;14.20;99.90;;;;;;5379823;26;20014;-76
2024/05/08 07:15:26;;;;;;;19.65;15.63;;;14.10;99.90;;;;;;5380228;26;20487;-76
2024/05/08 07:18:10;;;;;;;18.50;15.38;;;14.10;99.90;;;;;;5383482;26;20343;-76
2024/05/08 07:20:56;;;;;;;23.08;17.05;;;14.20;99.90;;;;;;5390069;26;20464;-75
2024/05/08 07:23:43;;;;;;;19.98;16.33;;;14.30;99.90;;;;;;5386771;26;20090;-75
2024/05/08 07:26:28;;;;;;;21.48;16.17;;;14.50;99.90;;;;;;5377843;26;20450;-75
2024/05/08 07:29:15;;;;;;;19.83;16.30;;;14.50;99.90;;;;;;5386928;26;20534;-76
2024/05/08 07:32:01;;;;;;;23.92;17.42;;;14.50;99.90;;;;;;5383689;26;20589;-77
2024/05/08 07:34:46;;;;;;;21.50;17.63;;;14.40;99.90;;;;;;5377831;26;20082;-78
2024/05/08 07:37:31;;;;;;;19.80;16.38;;;14.40;99.90;;;;;;5386157;26;20524;-76
2024/05/08 07:40:15;;;;;;;20.55;16.35;;;14.40;99.90;;;;;;5383661;26;20434;-78
2024/05/08 07:43:03;;;;;;;18.60;15.18;;;14.50;99.90;;;;;;5380167;26;20057;-76
2024/05/08 07:45:50;;;;;;;20.67;16.52;;;14.60;99.90;;;;;;5380335;26;20017;-76
2024/05/08 07:48:35;;;;;;;20.55;16.63;;;14.70;99.90;;;;;;5378711;26;20033;-77
2024/05/08 07:51:20;;;;;;;19.95;15.50;;;14.80;99.90;;;;;;5378152;26;20431;-76
2024/05/08 07:54:05;;;;;;;18.95;15.95;;;14.80;99.90;;;;;;5374383;26;20011;-76
2024/05/08 07:56:50;;;;;;;23.75;15.75;;;14.80;99.90;;;;;;5375793;26;20081;-77
2024/05/08 07:59:36;;;;;;;18.48;15.13;;;14.80;99.90;;;;;;5379668;26;20011;-76
2024/05/08 08:02:23;;;;;;;21.45;16.80;;;14.70;99.90;;;;;;5383902;26;20463;-76
2024/05/08 08:05:08;;;;;;;19.25;15.90;;;14.70;99.90;;;;;;5382631;26;20015;-77
2024/05/08 08:07:53;;;;;;;21.20;16.80;;;14.80;99.90;;;;;;5371938;26;20120;-76
2024/05/08 08:10:38;;;;;;;20.33;16.52;;;14.80;99.90;;;;;;5376918;26;20077;-77
2024/05/08 08:13:23;;;;;;;21.50;16.10;;;14.90;99.90;;;;;;5370591;26;20078;-76
2024/05/08 08:16:08;;;;;;;;;;;15.00;99.90;;;;;;5382384;26;20541;-76
2024/05/08 08:18:56;;;;;;;20.15;15.88;;;14.90;99.90;;;;;;5380654;26;20539;-76
2024/05/08 08:21:42;;;;;;;19.50;16.30;;;15.00;99.90;;;;;;5380739;26;20026;-76
2024/05/08 08:24:27;;;;;;;21.58;16.55;;;15.10;99.90;;;;;;5377457;26;20125;-76
2024/05/08 08:27:13;;;;;;;21.73;17.55;;;15.10;99.90;;;;;;5382273;26;20171;-77
2024/05/08 08:29:59;;;;;;;20.15;16.60;;;14.90;99.90;;;;;;5403970;26;20023;-76
2024/05/08 08:32:44;;;;;;;19.98;16.73;;;14.90;99.90;;;;;;5385565;26;20804;-76
2024/05/08 08:35:31;;;;;;;21.88;17.63;;;14.90;99.90;;;;;;5380775;26;20027;-76
2024/05/08 08:38:16;;;;;;;19.33;16.65;;;15.00;99.90;;;;;;5373463;26;20559;-76
2024/05/08 08:41:09;;;;;;;22.90;17.52;;;15.10;99.90;;;;;;5374913;26;20080;-76
2024/05/08 08:44:01;;;;;;;21.55;17.88;;;15.10;99.90;;;;;;5378847;26;20015;-79
2024/05/08 08:46:47;;;;;;;22.70;17.23;;;15.20;99.90;;;;;;5384959;26;20459;-77
2024/05/08 08:49:37;;;;;;;22.15;16.48;;;15.20;99.90;;;;;;5389591;26;20013;-77
2024/05/08 08:52:25;;;;;;;19.55;17.38;;;15.30;99.90;;;;;;5378538;26;20467;-78
2024/05/08 08:55:11;;;;;;;20.73;17.05;;;15.30;99.90;;;;;;5375962;26;20008;-78
2024/05/08 08:57:56;;;;;;;19.42;16.90;;;15.40;99.90;;;;;;5373567;26;20022;-82
2024/05/08 09:00:43;;;;;;;21.42;17.17;;;15.50;99.90;;;;;;5376028;26;20085;-83
2024/05/08 09:03:29;;;;;;;20.08;16.08;;;15.50;99.90;;;;;;5371005;26;20419;-82
2024/05/08 09:06:14;;;;;;;18.65;16.20;;;15.60;99.90;;;;;;5378427;26;20030;-81
2024/05/08 09:09:02;;;;;;;17.63;15.38;;;15.70;99.90;;;;;;5383269;26;20081;-82
2024/05/08 09:11:47;;;;;;;20.33;16.52;;;15.80;99.90;;;;;;5376660;26;20012;-81
2024/05/08 09:14:32;;;;;;;19.60;16.23;;;15.90;99.90;;;;;;5389550;26;20360;-81
2024/05/08 09:17:17;;;;;;;20.55;15.93;;;16.00;99.90;;;;;;5386391;26;20061;-82
2024/05/08 09:20:02;;;;;;;18.75;16.15;;;16.00;99.90;;;;;;5389323;26;20022;-81
2024/05/08 09:22:48;;;;;;;;;;;16.10;99.90;;;;;;5387762;26;20834;-79
2024/05/08 09:25:36;;;;;;;18.30;15.23;;;16.20;99.90;;;;;;5380918;26;19943;-77
2024/05/08 09:28:23;;;;;;;19.40;15.63;;;16.30;99.90;;;;;;5379255;26;20014;-77
2024/05/08 09:31:08;;;;;;;20.52;16.60;;;16.40;99.90;;;;;;5378287;26;20026;-77
2024/05/08 09:33:53;;;;;;;19.80;15.88;;;16.30;99.90;;;;;;5375805;26;20364;-77
2024/05/08 09:36:39;;;;;;;;;;;16.30;99.90;;;;;;5380658;26;20023;-78
2024/05/08 09:39:24;;;;;;;18.42;15.75;;;16.30;99.90;;;;;;5383639;26;19932;-79
2024/05/08 09:42:12;;;;;;;21.38;17.05;;;16.40;99.90;;;;;;5375049;26;20074;-76
2024/05/08 09:44:59;;;;;;;20.70;16.98;;;16.50;99.90;;;;;;5362747;26;20125;-76
2024/05/08 09:47:51;;;;;;;21.63;17.00;;;16.40;99.90;;;;;;5367611;26;20063;-78
2024/05/08 09:50:37;;;;;;;22.70;16.60;;;16.50;99.90;;;;;;5368328;26;20098;-79
2024/05/08 09:53:51;;;;;;;17.40;15.50;;;16.60;99.90;;;;;;5356086;26;20053;-78
2024/05/08 09:57:14;;;;;;;19.42;16.55;;;16.70;99.90;;;;;;5359085;26;20081;-78
2024/05/08 10:00:26;;;;;;;18.73;15.65;;;16.80;99.90;;;;;;5357762;26;20019;-79
2024/05/08 10:04:02;;;;;;;19.40;15.45;;;17.10;99.90;;;;;;5356423;26;20048;-77
2024/05/08 10:15:46;;;;;;;18.10;14.68;;;17.80;99.90;;;;;;5197516;27;20085;-79
2024/05/08 10:18:37;;;;;;;18.52;15.50;;;18.10;99.90;;;;;;5382342;26;20023;-78
2024/05/08 10:21:23;;;;;;;16.92;15.13;;;18.30;99.90;;;;;;5361507;26;20019;-77
2024/05/08 10:24:08;;;;;;;18.75;15.52;;;18.50;99.90;;;;;;5366576;26;20027;-78
2024/05/08 10:26:56;;;;;;;18.40;15.40;;;18.60;99.90;;;;;;5359726;26;20019;-78
2024/05/08 10:29:42;;;;;;;17.63;15.25;;;18.60;99.90;;;;;;5365798;26;20360;-79
2024/05/08 10:32:30;;;;;;;19.45;15.40;;;18.50;99.90;;;;;;5379530;26;20742;-79
2024/05/08 10:35:19;;;;;;;19.00;16.63;;;18.50;99.90;;;;;;5379362;26;20081;-79
2024/05/08 10:38:05;;;;;;;16.58;14.55;;;18.50;99.90;;;;;;5381196;26;20088;-80
2024/05/08 10:40:55;;;;;;;16.40;14.63;;;18.60;99.90;;;;;;5349835;26;20073;-83
2024/05/08 10:43:42;;;;;;;16.80;14.82;;;18.70;99.90;;;;;;5374300;26;20061;-81
2024/05/08 10:46:29;;;;;;;17.77;14.18;;;18.80;99.90;;;;;;5367804;26;20019;-81
2024/05/08 10:49:14;;;;;;;15.35;12.65;;;19.00;99.90;;;;;;5372914;26;20062;-82
2024/05/08 10:52:02;;;;;;;14.63;12.35;;;19.20;99.90;;;;;;5376002;26;20233;-79
2024/05/08 10:54:48;;;;;;;16.13;12.90;;;19.40;99.90;;;;;;5357448;26;20080;-79
2024/05/08 10:57:33;;;;;;;14.77;12.05;;;19.50;99.90;;;;;;5361238;26;20015;-82
2024/05/08 11:00:21;;;;;;;14.50;13.00;;;19.60;99.90;;;;;;5357378;26;20044;-84
2024/05/08 11:03:08;;;;;;;14.90;12.23;;;19.70;99.90;;;;;;5369283;26;20090;-80
2024/05/08 11:05:53;;;;;;;17.10;12.30;;;19.60;99.90;;;;;;5356369;26;20037;-79
2024/05/08 11:08:40;;;;;;;14.50;12.95;;;19.50;99.90;;;;;;5371017;26;20019;-79
2024/05/08 11:11:30;;;;;;;14.10;12.13;;;19.50;99.90;;;;;;5364409;26;20024;-83
2024/05/08 11:14:17;;;;;;;14.02;12.18;;;19.40;99.90;;;;;;5354716;26;20016;-82
2024/05/08 11:17:03;;;;;;;13.18;11.77;;;19.30;99.90;;;;;;5369003;26;20565;-78
2024/05/08 11:19:48;;;;;;;14.13;12.18;;;19.40;99.90;;;;;;5368174;26;20810;-82
2024/05/08 11:22:40;;;;;;;15.32;11.98;;;19.70;99.80;;;;;;5358560;26;20078;-78
2024/05/08 11:25:28;;;;;;;12.77;11.25;;;19.70;99.70;;;;;;5366507;26;20703;-76
2024/05/08 11:28:13;;;;;;;14.45;11.27;;;19.70;99.20;;;;;;5363669;26;20030;-75
2024/05/08 11:31:01;;;;;;;12.35;10.35;;;19.90;99.30;;;;;;5365383;26;20026;-76
2024/05/08 11:33:46;;;;;;;13.80;11.52;;;20.20;99.10;;;;;;5371125;26;20008;-76
2024/05/08 11:36:31;;;;;;;12.68;10.02;;;20.40;98.30;;;;;;5372930;26;20027;-77
2024/05/08 11:39:16;;;;;;;11.88;10.40;;;20.40;98.80;;;;;;5366060;26;20015;-74
2024/05/08 11:42:05;;;;;;;13.98;9.80;;;20.70;98.60;;;;;;5351791;26;20824;-76
2024/05/08 11:44:50;;;;;;;10.70;9.60;;;20.90;97.80;;;;;;5352804;26;20114;-75
2024/05/08 11:47:35;;;;;;;11.50;9.88;;;21.00;97.80;;;;;;5365338;26;20094;-76
2024/05/08 11:50:20;;;;;;;11.63;10.02;;;21.00;97.60;;;;;;5367807;26;20044;-75
2024/05/08 11:53:05;;;;;;;;;;;21.20;97.40;;;;;;5364463;26;20530;-77
2024/05/08 11:55:50;;;;;;;10.68;9.10;;;21.30;96.80;;;;;;5370007;26;19980;-76
2024/05/08 11:58:38;;;;;;;11.27;9.80;;;21.40;96.80;;;;;;5360505;26;20019;-76
2024/05/08 12:01:23;;;;;;;10.65;9.55;;;21.60;96.90;;;;;;5372946;26;20019;-77
2024/05/08 12:04:08;;;;;;;11.73;9.25;;;21.80;97.10;;;;;;5372900;26;20015;-77
2024/05/08 12:06:53;;;;;;;10.65;9.55;;;22.00;96.90;;;;;;5351432;26;20385;-76
2024/05/08 12:09:39;;;;;;;10.57;9.48;;;22.00;96.10;;;;;;5344833;26;20071;-78
2024/05/08 12:12:24;;;;;;;10.45;8.68;;;21.90;96.10;;;;;;5355870;26;20391;-77
2024/05/08 12:15:12;;;;;;;9.65;8.30;;;21.60;96.60;;;;;;5356715;26;20040;-77
2024/05/08 12:17:57;;;;;;;9.20;8.07;;;21.20;96.80;;;;;;5354312;26;20429;-77
2024/05/08 12:20:42;;;;;;;10.32;9.27;;;20.80;97.30;;;;;;5354299;26;20018;-77
2024/05/08 12:23:27;;;;;;;10.70;9.13;;;20.90;97.40;;;;;;5362798;26;20011;-78
2024/05/08 12:26:12;;;;;;;;;;;21.10;97.00;;;;;;5361100;26;20082;-76
2024/05/08 12:28:58;;;;;;;9.55;8.55;;;21.30;96.70;;;;;;5351367;26;19936;-77
2024/05/08 12:31:45;;;;;;;9.80;8.13;;;21.50;96.30;;;;;;5356182;26;20007;-77
2024/05/08 12:34:31;;;;;;;10.15;8.98;;;21.70;95.80;;;;;;5371033;26;20074;-77
2024/05/08 12:37:19;;;;;;;10.18;8.18;;;21.80;95.40;;;;;;5352231;26;20015;-76
2024/05/08 12:40:04;;;;;;;11.00;8.55;;;22.00;95.70;;;;;;5360674;26;20012;-76
2024/05/08 12:42:49;;;;;;;10.30;8.75;;;22.30;95.80;;;;;;5351333;26;20078;-78
2024/05/08 12:45:34;;;;;;;8.93;8.02;;;22.50;95.60;;;;;;5362971;26;20081;-76
2024/05/08 12:48:21;;;;;;;;;;;22.70;95.20;;;;;;5357151;26;20016;-75
2024/05/08 12:51:06;;;;;;;7.90;7.05;;;22.90;94.70;;;;;;5343798;26;20322;-75
2024/05/08 12:53:51;;;;;;;;;;;22.80;94.10;;;;;;5354858;26;20795;-76
2024/05/08 12:56:36;;;;;;;9.73;7.32;;;23.10;93.20;;;;;;5371016;26;20293;-76
2024/05/08 12:59:21;;;;;;;11.18;7.80;;;23.50;93.30;;;;;;5351254;26;20549;-75
2024/05/08 13:02:05;;;;;;;;;;;24.00;93.10;;;;;;5358579;26;20071;-77
2024/05/08 13:04:53;;;;;;;9.43;7.78;;;24.30;92.50;;;;;;5364444;26;20008;-77
2024/05/08 13:07:38;;;;;;;9.18;7.47;;;24.10;92.20;;;;;;5353982;26;20054;-77
2024/05/08 13:10:24;;;;;;;9.00;8.10;;;24.20;92.80;;;;;;5371573;26;20073;-77
2024/05/08 13:13:09;;;;;;;9.15;8.25;;;24.80;92.30;;;;;;5340211;26;20100;-77
2024/05/08 13:15:54;;;;;;;11.43;10.18;;;24.30;92.50;;;;;;5349379;26;20020;-77
2024/05/08 13:18:40;;;;;;;12.95;9.57;;;23.40;93.40;;;;;;5364447;26;20069;-77
2024/05/08 13:21:27;;;;;;;;;;;22.70;94.20;;;;;;5352701;26;20019;-76
2024/05/08 13:24:14;;;;;;;10.20;8.73;;;22.20;94.30;;;;;;5359106;26;19932;-76
2024/05/08 13:26:58;;;;;;;11.88;9.13;;;21.80;95.00;;;;;;5372145;26;20026;-77
2024/05/08 13:29:43;;;;;;;12.65;9.48;;;21.60;95.60;;;;;;5369538;26;20016;-77
2024/05/08 13:32:30;;;;;;;11.18;9.80;;;21.30;95.90;;;;;;5372388;26;20450;-75
2024/05/08 13:35:18;;;;;;;11.68;10.40;;;21.10;95.80;;;;;;5371969;26;20113;-76
2024/05/08 13:38:07;;;;;;;13.00;10.98;;;21.00;95.80;;;;;;5370596;26;20016;-76
2024/05/08 13:40:53;;;;;;;11.52;10.38;;;21.20;95.60;;;;;;5367176;26;20085;-77
2024/05/08 13:43:38;;;;;;;10.25;9.25;;;22.30;94.80;;;;;;5358895;26;20476;-76
2024/05/08 13:46:22;;;;;;;11.48;10.25;;;23.50;93.50;;;;;;5371434;26;20468;-76
2024/05/08 13:49:07;;;;;;;11.02;9.68;;;24.30;92.60;;;;;;5356301;26;20015;-76
2024/05/08 13:51:52;;;;;;;;;;;25.30;91.70;;;;;;5359283;26;20024;-76
2024/05/08 13:54:39;;;;;;;10.30;8.77;;;26.20;91.40;;;;;;5365360;26;19932;-76
2024/05/08 13:57:24;;;;;;;10.43;8.23;;;26.90;90.70;;;;;;5364697;26;20015;-76
2024/05/08 14:00:10;;;;;;;9.00;8.02;;;26.90;88.50;;;;;;5369552;26;20019;-76
2024/05/08 14:02:56;;;;;;;12.55;8.05;;;26.50;87.40;;;;;;5363163;26;20019;-76
2024/05/08 14:05:41;;;;;;;7.60;6.90;;;26.10;88.30;;;;;;5372368;26;20023;-77
2024/05/08 14:08:26;;;;;;;8.23;7.32;;;25.60;89.80;;;;;;5361083;26;20078;-76
2024/05/08 14:11:14;;;;;;;;;;;25.00;89.70;;;;;;5358152;26;20020;-76
2024/05/08 14:13:59;;;;;;;11.45;10.27;;;25.30;90.90;;;;;;5376155;26;19932;-76
2024/05/08 14:16:44;;;;;;;12.05;9.88;;;24.70;91.10;;;;;;5372868;26;20066;-76
2024/05/08 14:19:29;;;;;;;10.75;9.65;;;23.90;92.10;;;;;;5372997;26;20015;-76
2024/05/08 14:22:13;;;;;;;;;;;23.10;93.00;;;;;;5359332;26;20019;-76
2024/05/08 14:24:58;;;;;;;12.23;10.10;;;22.50;93.70;;;;;;5356206;26;19932;-76
2024/05/08 14:27:45;;;;;;;;;;;22.00;94.30;;;;;;5365737;26;20085;-76